sensor_id;sensor_type;location;lat;lon;timestamp;P1;durP1;ratioP1;P2;durP2;ratioP2
45734;SDS011;31446;49.632;8.328;2022-08-20T00:12:46;6.97;;;2.90;;
45734;SDS011;31446;49.632;8.328;2022-08-20T00:27:48;5.72;;;3.50;;
45734;SDS011;31446;49.632;8.328;2022-08-20T00:42:51;4.75;;;2.63;;
45734;SDS011;31446;49.632;8.328;2022-08-20T00:57:59;6.13;;;2.30;;
45734;SDS011;31446;49.632;8.328;2022-08-20T01:13:08;5.82;;;1.80;;
45734;SDS011;31446;49.632;8.328;2022-08-20T01:28:12;2.75;;;1.25;;
45734;SDS011;31446;49.632;8.328;2022-08-20T01:43:15;4.15;;;0.90;;
45734;SDS011;31446;49.632;8.328;2022-08-20T01:58:16;3.65;;;1.10;;
45734;SDS011;31446;49.632;8.328;2022-08-20T02:13:17;1.95;;;1.10;;
45734;SDS011;31446;49.632;8.328;2022-08-20T02:28:18;0.98;;;0.98;;
45734;SDS011;31446;49.632;8.328;2022-08-20T02:43:19;1.10;;;0.80;;
45734;SDS011;31446;49.632;8.328;2022-08-20T02:58:20;2.40;;;0.90;;
45734;SDS011;31446;49.632;8.328;2022-08-20T03:13:21;1.40;;;0.88;;
45734;SDS011;31446;49.632;8.328;2022-08-20T03:28:23;0.63;;;0.63;;
45734;SDS011;31446;49.632;8.328;2022-08-20T03:43:23;2.72;;;1.40;;
45734;SDS011;31446;49.632;8.328;2022-08-20T03:58:24;1.10;;;1.00;;
45734;SDS011;31446;49.632;8.328;2022-08-20T04:13:26;1.02;;;1.00;;
45734;SDS011;31446;49.632;8.328;2022-08-20T04:28:28;2.55;;;1.05;;
45734;SDS011;31446;49.632;8.328;2022-08-20T04:43:30;2.13;;;1.25;;
45734;SDS011;31446;49.632;8.328;2022-08-20T04:58:34;4.50;;;1.20;;
45734;SDS011;31446;49.632;8.328;2022-08-20T05:13:36;1.27;;;1.20;;
45734;SDS011;31446;49.632;8.328;2022-08-20T05:28:38;3.00;;;1.58;;
45734;SDS011;31446;49.632;8.328;2022-08-20T05:43:39;4.15;;;2.42;;
45734;SDS011;31446;49.632;8.328;2022-08-20T05:58:39;8.43;;;2.65;;
45734;SDS011;31446;49.632;8.328;2022-08-20T06:13:40;2.80;;;1.95;;
45734;SDS011;31446;49.632;8.328;2022-08-20T06:28:40;2.55;;;2.30;;
45734;SDS011;31446;49.632;8.328;2022-08-20T06:43:42;5.00;;;3.53;;
45734;SDS011;31446;49.632;8.328;2022-08-20T06:58:42;6.45;;;3.85;;
45734;SDS011;31446;49.632;8.328;2022-08-20T07:13:43;4.38;;;3.47;;
45734;SDS011;31446;49.632;8.328;2022-08-20T07:28:44;3.93;;;3.10;;
45734;SDS011;31446;49.632;8.328;2022-08-20T07:43:46;7.22;;;2.42;;
45734;SDS011;31446;49.632;8.328;2022-08-20T07:58:48;4.82;;;2.33;;
45734;SDS011;31446;49.632;8.328;2022-08-20T08:13:51;4.10;;;3.50;;
45734;SDS011;31446;49.632;8.328;2022-08-20T08:28:52;2.67;;;1.95;;
45734;SDS011;31446;49.632;8.328;2022-08-20T08:43:52;4.72;;;1.52;;
45734;SDS011;31446;49.632;8.328;2022-08-20T08:59:06;1.55;;;1.10;;
45734;SDS011;31446;49.632;8.328;2022-08-20T09:14:10;0.90;;;0.90;;
45734;SDS011;31446;49.632;8.328;2022-08-20T09:29:11;0.80;;;0.80;;
45734;SDS011;31446;49.632;8.328;2022-08-20T09:44:12;0.65;;;0.60;;
45734;SDS011;31446;49.632;8.328;2022-08-20T09:59:13;3.35;;;0.30;;
45734;SDS011;31446;49.632;8.328;2022-08-20T10:14:15;0.30;;;0.30;;
45734;SDS011;31446;49.632;8.328;2022-08-20T10:29:15;0.43;;;0.43;;
45734;SDS011;31446;49.632;8.328;2022-08-20T10:44:16;0.73;;;0.40;;
45734;SDS011;31446;49.632;8.328;2022-08-20T10:59:17;4.45;;;0.30;;
45734;SDS011;31446;49.632;8.328;2022-08-20T11:14:18;0.30;;;0.30;;
45734;SDS011;31446;49.632;8.328;2022-08-20T11:29:19;2.33;;;0.25;;
45734;SDS011;31446;49.632;8.328;2022-08-20T11:44:21;0.30;;;0.30;;
45734;SDS011;31446;49.632;8.328;2022-08-20T11:59:22;0.52;;;0.50;;
45734;SDS011;31446;49.632;8.328;2022-08-20T12:14:24;0.50;;;0.50;;
45734;SDS011;31446;49.632;8.328;2022-08-20T12:29:25;0.47;;;0.47;;
45734;SDS011;31446;49.632;8.328;2022-08-20T12:44:26;2.00;;;1.05;;
45734;SDS011;31446;49.632;8.328;2022-08-20T12:59:27;1.40;;;1.30;;
45734;SDS011;31446;49.632;8.328;2022-08-20T13:14:28;1.42;;;1.33;;
45734;SDS011;31446;49.632;8.328;2022-08-20T13:29:29;2.93;;;0.97;;
45734;SDS011;31446;49.632;8.328;2022-08-20T13:44:30;3.40;;;1.25;;
45734;SDS011;31446;49.632;8.328;2022-08-20T13:59:33;2.58;;;1.25;;
45734;SDS011;31446;49.632;8.328;2022-08-20T14:14:43;2.43;;;1.30;;
45734;SDS011;31446;49.632;8.328;2022-08-20T14:29:45;2.35;;;0.90;;
45734;SDS011;31446;49.632;8.328;2022-08-20T14:44:48;5.23;;;1.27;;
45734;SDS011;31446;49.632;8.328;2022-08-20T14:59:51;1.63;;;0.97;;
45734;SDS011;31446;49.632;8.328;2022-08-20T15:14:52;2.67;;;1.47;;
45734;SDS011;31446;49.632;8.328;2022-08-20T15:29:53;3.00;;;1.10;;
45734;SDS011;31446;49.632;8.328;2022-08-20T15:44:53;2.10;;;1.42;;
45734;SDS011;31446;49.632;8.328;2022-08-20T16:15:22;2.00;;;1.00;;
45734;SDS011;31446;49.632;8.328;2022-08-20T16:45:48;1.23;;;1.23;;
45734;SDS011;31446;49.632;8.328;2022-08-20T17:01:10;5.10;;;1.33;;
45734;SDS011;31446;49.632;8.328;2022-08-20T17:31:18;3.42;;;0.93;;
45734;SDS011;31446;49.632;8.328;2022-08-20T17:46:38;21.77;;;6.53;;
45734;SDS011;31446;49.632;8.328;2022-08-20T18:01:42;2.20;;;1.40;;
45734;SDS011;31446;49.632;8.328;2022-08-20T18:16:44;1.80;;;1.67;;
45734;SDS011;31446;49.632;8.328;2022-08-20T18:32:25;3.17;;;1.80;;
45734;SDS011;31446;49.632;8.328;2022-08-20T18:47:44;2.67;;;1.80;;
45734;SDS011;31446;49.632;8.328;2022-08-20T19:18:06;7.18;;;1.90;;
45734;SDS011;31446;49.632;8.328;2022-08-20T19:33:09;5.85;;;1.90;;
45734;SDS011;31446;49.632;8.328;2022-08-20T19:48:26;10.48;;;2.60;;
45734;SDS011;31446;49.632;8.328;2022-08-20T20:03:40;7.75;;;2.70;;
45734;SDS011;31446;49.632;8.328;2022-08-20T20:18:52;10.02;;;2.80;;
45734;SDS011;31446;49.632;8.328;2022-08-20T20:33:53;6.22;;;2.25;;
45734;SDS011;31446;49.632;8.328;2022-08-20T20:49:08;8.57;;;2.67;;
45734;SDS011;31446;49.632;8.328;2022-08-20T21:04:25;9.88;;;2.67;;
45734;SDS011;31446;49.632;8.328;2022-08-20T21:19:26;19.83;;;3.05;;
45734;SDS011;31446;49.632;8.328;2022-08-20T21:34:27;10.18;;;3.00;;
45734;SDS011;31446;49.632;8.328;2022-08-20T21:49:29;15.77;;;3.35;;
45734;SDS011;31446;49.632;8.328;2022-08-20T22:04:30;6.72;;;3.00;;
45734;SDS011;31446;49.632;8.328;2022-08-20T22:19:31;16.33;;;3.00;;
45734;SDS011;31446;49.632;8.328;2022-08-20T22:34:32;6.57;;;2.60;;
45734;SDS011;31446;49.632;8.328;2022-08-20T22:49:36;9.32;;;2.65;;
45734;SDS011;31446;49.632;8.328;2022-08-20T23:04:38;12.37;;;2.80;;
45734;SDS011;31446;49.632;8.328;2022-08-20T23:19:42;9.88;;;2.63;;
45734;SDS011;31446;49.632;8.328;2022-08-20T23:34:44;5.90;;;2.92;;
45734;SDS011;31446;49.632;8.328;2022-08-20T23:49:44;12.32;;;3.38;;
